<?xml version="1.0" encoding="UTF-8" standalone="no" ?>
<gpx xmlns="http://www.topografix.com/GPX/1/1" xmlns:xsi="http://www.w3.org/2001/XMLSchema-instance" xsi:schemaLocation="http://www.topografix.com/GPX/1/1 http://www.topografix.com/GPX/1/1/gpx.xsd" version="1.1" creator="VisuGPX - https://www.visugpx.com">
  <metadata>
    <name>06: Sentier forestier - plateau de Tesserieyres</name>
    <desc><![CDATA[06: Sentier forestier - plateau de Tesserieyres]]></desc>
  </metadata>
  <wpt lat="43.83631" lon="3.12279">
    <ele>520</ele>
    <name><![CDATA[Accueil PdC Centre]]></name>
  </wpt>
  <wpt lat="43.83043" lon="3.11691">
    <ele>575</ele>
    <name><![CDATA[SFA]]></name>
  </wpt>
  <wpt lat="43.83028" lon="3.11214">
    <ele>630</ele>
    <name><![CDATA[SFB]]></name>
  </wpt>
  <wpt lat="43.8287" lon="3.1093">
    <ele>660.1</ele>
    <name><![CDATA[SFC]]></name>
  </wpt>
  <wpt lat="43.82502" lon="3.10689">
    <ele>710.1</ele>
    <name><![CDATA[SFD]]></name>
  </wpt>
  <wpt lat="43.82227" lon="3.1039">
    <ele>750</ele>
    <name><![CDATA[PTD]]></name>
  </wpt>
  <wpt lat="43.82257" lon="3.10579">
    <ele>750</ele>
    <name><![CDATA[RMD]]></name>
  </wpt>
  <wpt lat="43.82262" lon="3.11042">
    <ele>735.1</ele>
    <name><![CDATA[RMC]]></name>
  </wpt>
  <wpt lat="43.82347" lon="3.11236">
    <ele>730</ele>
    <name><![CDATA[MTE]]></name>
  </wpt>
  <wpt lat="43.82514" lon="3.11561">
    <ele>705</ele>
    <name><![CDATA[MTD]]></name>
  </wpt>
  <wpt lat="43.82916" lon="3.11905">
    <ele>669.9</ele>
    <name><![CDATA[MTA]]></name>
  </wpt>
  <wpt lat="43.83214" lon="3.12269">
    <ele>655</ele>
    <name><![CDATA[MTB]]></name>
  </wpt>
  <wpt lat="43.83443" lon="3.12248">
    <ele>580</ele>
    <name><![CDATA[MTM]]></name>
  </wpt>
  <wpt lat="43.8336" lon="3.12054">
    <ele>555</ele>
    <name><![CDATA[RMA]]></name>
  </wpt>
  <wpt lat="43.83565" lon="3.12242">
    <ele>530.1</ele>
    <name><![CDATA[PCB]]></name>
  </wpt>
  <wpt lat="43.83608" lon="3.12216">
    <ele>530.1</ele>
    <name><![CDATA[PCC]]></name>
  </wpt>
  <trk>
    <name><![CDATA[RoTra 06 PdC]]></name>
    <trkseg>
      <trkpt lat="43.83607" lon="3.12214">
        <ele>526</ele>
        <time>2010-01-01T00:00:00Z</time>
      </trkpt>
      <trkpt lat="43.83603" lon="3.12202">
        <ele>528</ele>
        <time>2010-01-01T00:00:18Z</time>
      </trkpt>
      <trkpt lat="43.83572" lon="3.12151">
        <ele>538</ele>
        <time>2010-01-01T00:01:49Z</time>
      </trkpt>
      <trkpt lat="43.8352" lon="3.1209">
        <ele>543</ele>
        <time>2010-01-01T00:03:59Z</time>
      </trkpt>
      <trkpt lat="43.8348" lon="3.12048">
        <ele>551</ele>
        <time>2010-01-01T00:05:35Z</time>
      </trkpt>
      <trkpt lat="43.83428" lon="3.12025">
        <ele>554</ele>
        <time>2010-01-01T00:07:18Z</time>
      </trkpt>
      <trkpt lat="43.83399" lon="3.12014">
        <ele>554</ele>
        <time>2010-01-01T00:08:17Z</time>
      </trkpt>
      <trkpt lat="43.83382" lon="3.12013">
        <ele>555</ele>
        <time>2010-01-01T00:08:48Z</time>
      </trkpt>
      <trkpt lat="43.83354" lon="3.11989">
        <ele>558</ele>
        <time>2010-01-01T00:09:51Z</time>
      </trkpt>
      <trkpt lat="43.83294" lon="3.11958">
        <ele>567</ele>
        <time>2010-01-01T00:11:54Z</time>
      </trkpt>
      <trkpt lat="43.83265" lon="3.11932">
        <ele>568</ele>
        <time>2010-01-01T00:12:59Z</time>
      </trkpt>
      <trkpt lat="43.83228" lon="3.11897">
        <ele>575</ele>
        <time>2010-01-01T00:14:24Z</time>
      </trkpt>
      <trkpt lat="43.83172" lon="3.11827">
        <ele>584</ele>
        <time>2010-01-01T00:16:49Z</time>
      </trkpt>
      <trkpt lat="43.83138" lon="3.11794">
        <ele>590</ele>
        <time>2010-01-01T00:18:08Z</time>
      </trkpt>
      <trkpt lat="43.83101" lon="3.11751">
        <ele>587</ele>
        <time>2010-01-01T00:19:39Z</time>
      </trkpt>
      <trkpt lat="43.83063" lon="3.11717">
        <ele>592</ele>
        <time>2010-01-01T00:21:06Z</time>
      </trkpt>
      <trkpt lat="43.8306" lon="3.11716">
        <ele>592</ele>
        <time>2010-01-01T00:21:11Z</time>
      </trkpt>
      <trkpt lat="43.83048" lon="3.1171">
        <ele>594</ele>
        <time>2010-01-01T00:21:36Z</time>
      </trkpt>
      <trkpt lat="43.83036" lon="3.11675">
        <ele>595</ele>
        <time>2010-01-01T00:22:29Z</time>
      </trkpt>
      <trkpt lat="43.83031" lon="3.11623">
        <ele>602</ele>
        <time>2010-01-01T00:23:41Z</time>
      </trkpt>
      <trkpt lat="43.83058" lon="3.11434">
        <ele>629</ele>
        <time>2010-01-01T00:28:06Z</time>
      </trkpt>
      <trkpt lat="43.83061" lon="3.11377">
        <ele>634</ele>
        <time>2010-01-01T00:29:24Z</time>
      </trkpt>
      <trkpt lat="43.83058" lon="3.11314">
        <ele>640</ele>
        <time>2010-01-01T00:30:51Z</time>
      </trkpt>
      <trkpt lat="43.83047" lon="3.11255">
        <ele>645</ele>
        <time>2010-01-01T00:32:14Z</time>
      </trkpt>
      <trkpt lat="43.8303" lon="3.11212">
        <ele>647</ele>
        <time>2010-01-01T00:33:23Z</time>
      </trkpt>
      <trkpt lat="43.83025" lon="3.11206">
        <ele>648</ele>
        <time>2010-01-01T00:33:35Z</time>
      </trkpt>
      <trkpt lat="43.82908" lon="3.10978">
        <ele>670</ele>
        <time>2010-01-01T00:39:59Z</time>
      </trkpt>
      <trkpt lat="43.82872" lon="3.10933">
        <ele>679</ele>
        <time>2010-01-01T00:41:33Z</time>
      </trkpt>
      <trkpt lat="43.82871" lon="3.10931">
        <ele>679</ele>
        <time>2010-01-01T00:41:36Z</time>
      </trkpt>
      <trkpt lat="43.828" lon="3.10864">
        <ele>690</ele>
        <time>2010-01-01T00:44:19Z</time>
      </trkpt>
      <trkpt lat="43.82648" lon="3.10782">
        <ele>712</ele>
        <time>2010-01-01T00:49:31Z</time>
      </trkpt>
      <trkpt lat="43.82574" lon="3.10756">
        <ele>717</ele>
        <time>2010-01-01T00:51:55Z</time>
      </trkpt>
      <trkpt lat="43.8254" lon="3.10735">
        <ele>721</ele>
        <time>2010-01-01T00:53:08Z</time>
      </trkpt>
      <trkpt lat="43.82503" lon="3.10695">
        <ele>723</ele>
        <time>2010-01-01T00:54:36Z</time>
      </trkpt>
      <trkpt lat="43.825" lon="3.10692">
        <ele>723</ele>
        <time>2010-01-01T00:54:43Z</time>
      </trkpt>
      <trkpt lat="43.82461" lon="3.10657">
        <ele>727</ele>
        <time>2010-01-01T00:56:11Z</time>
      </trkpt>
      <trkpt lat="43.82392" lon="3.10573">
        <ele>735</ele>
        <time>2010-01-01T00:59:07Z</time>
      </trkpt>
      <trkpt lat="43.82335" lon="3.10482">
        <ele>739</ele>
        <time>2010-01-01T01:01:52Z</time>
      </trkpt>
      <trkpt lat="43.82237" lon="3.10397">
        <ele>745</ele>
        <time>2010-01-01T01:05:34Z</time>
      </trkpt>
      <trkpt lat="43.82229" lon="3.10392">
        <ele>743</ele>
        <time>2010-01-01T01:05:50Z</time>
      </trkpt>
      <trkpt lat="43.82237" lon="3.1041">
        <ele>744</ele>
        <time>2010-01-01T01:06:19Z</time>
      </trkpt>
      <trkpt lat="43.82248" lon="3.1047">
        <ele>748</ele>
        <time>2010-01-01T01:07:45Z</time>
      </trkpt>
      <trkpt lat="43.82247" lon="3.10498">
        <ele>749</ele>
        <time>2010-01-01T01:08:23Z</time>
      </trkpt>
      <trkpt lat="43.82253" lon="3.10512">
        <ele>748</ele>
        <time>2010-01-01T01:08:46Z</time>
      </trkpt>
      <trkpt lat="43.82253" lon="3.10539">
        <ele>747</ele>
        <time>2010-01-01T01:09:23Z</time>
      </trkpt>
      <trkpt lat="43.82251" lon="3.10581">
        <ele>746</ele>
        <time>2010-01-01T01:10:21Z</time>
      </trkpt>
      <trkpt lat="43.82251" lon="3.10585">
        <ele>746</ele>
        <time>2010-01-01T01:10:27Z</time>
      </trkpt>
      <trkpt lat="43.8225" lon="3.10641">
        <ele>745</ele>
        <time>2010-01-01T01:11:44Z</time>
      </trkpt>
      <trkpt lat="43.82244" lon="3.10689">
        <ele>743</ele>
        <time>2010-01-01T01:12:51Z</time>
      </trkpt>
      <trkpt lat="43.82268" lon="3.10738">
        <ele>742</ele>
        <time>2010-01-01T01:14:13Z</time>
      </trkpt>
      <trkpt lat="43.82279" lon="3.10786">
        <ele>741</ele>
        <time>2010-01-01T01:15:21Z</time>
      </trkpt>
      <trkpt lat="43.82263" lon="3.10882">
        <ele>738</ele>
        <time>2010-01-01T01:17:37Z</time>
      </trkpt>
      <trkpt lat="43.82251" lon="3.10955">
        <ele>737</ele>
        <time>2010-01-01T01:19:19Z</time>
      </trkpt>
      <trkpt lat="43.82263" lon="3.11017">
        <ele>736</ele>
        <time>2010-01-01T01:20:48Z</time>
      </trkpt>
      <trkpt lat="43.82257" lon="3.1104">
        <ele>735</ele>
        <time>2010-01-01T01:21:21Z</time>
      </trkpt>
      <trkpt lat="43.82257" lon="3.11043">
        <ele>735</ele>
        <time>2010-01-01T01:21:26Z</time>
      </trkpt>
      <trkpt lat="43.8228" lon="3.11103">
        <ele>729</ele>
        <time>2010-01-01T01:22:58Z</time>
      </trkpt>
      <trkpt lat="43.82299" lon="3.11117">
        <ele>727</ele>
        <time>2010-01-01T01:23:40Z</time>
      </trkpt>
      <trkpt lat="43.82336" lon="3.11192">
        <ele>725</ele>
        <time>2010-01-01T01:25:45Z</time>
      </trkpt>
      <trkpt lat="43.8234" lon="3.11238">
        <ele>725</ele>
        <time>2010-01-01T01:26:49Z</time>
      </trkpt>
      <trkpt lat="43.8234" lon="3.11239">
        <ele>725</ele>
        <time>2010-01-01T01:26:51Z</time>
      </trkpt>
      <trkpt lat="43.82265" lon="3.11326">
        <ele>716</ele>
        <time>2010-01-01T01:29:58Z</time>
      </trkpt>
      <trkpt lat="43.82354" lon="3.11492">
        <ele>705</ele>
        <time>2010-01-01T01:34:43Z</time>
      </trkpt>
      <trkpt lat="43.82392" lon="3.11501">
        <ele>708</ele>
        <time>2010-01-01T01:35:56Z</time>
      </trkpt>
      <trkpt lat="43.82424" lon="3.11534">
        <ele>703</ele>
        <time>2010-01-01T01:37:11Z</time>
      </trkpt>
      <trkpt lat="43.82465" lon="3.11546">
        <ele>703</ele>
        <time>2010-01-01T01:38:32Z</time>
      </trkpt>
      <trkpt lat="43.82487" lon="3.11529">
        <ele>707</ele>
        <time>2010-01-01T01:39:20Z</time>
      </trkpt>
      <trkpt lat="43.82486" lon="3.11527">
        <ele>707</ele>
        <time>2010-01-01T01:39:22Z</time>
      </trkpt>
      <trkpt lat="43.82513" lon="3.11557">
        <ele>704</ele>
        <time>2010-01-01T01:40:28Z</time>
      </trkpt>
      <trkpt lat="43.82526" lon="3.11562">
        <ele>704</ele>
        <time>2010-01-01T01:40:54Z</time>
      </trkpt>
      <trkpt lat="43.82547" lon="3.11614">
        <ele>696</ele>
        <time>2010-01-01T01:42:15Z</time>
      </trkpt>
      <trkpt lat="43.82556" lon="3.11633">
        <ele>694</ele>
        <time>2010-01-01T01:42:47Z</time>
      </trkpt>
      <trkpt lat="43.82586" lon="3.11676">
        <ele>689</ele>
        <time>2010-01-01T01:44:08Z</time>
      </trkpt>
      <trkpt lat="43.82652" lon="3.11703">
        <ele>683</ele>
        <time>2010-01-01T01:46:19Z</time>
      </trkpt>
      <trkpt lat="43.82755" lon="3.11794">
        <ele>673</ele>
        <time>2010-01-01T01:50:12Z</time>
      </trkpt>
      <trkpt lat="43.82885" lon="3.11873">
        <ele>666</ele>
        <time>2010-01-01T01:54:43Z</time>
      </trkpt>
      <trkpt lat="43.82916" lon="3.11903">
        <ele>669</ele>
        <time>2010-01-01T01:55:55Z</time>
      </trkpt>
      <trkpt lat="43.82918" lon="3.11903">
        <ele>669</ele>
        <time>2010-01-01T01:55:59Z</time>
      </trkpt>
      <trkpt lat="43.82939" lon="3.11932">
        <ele>665</ele>
        <time>2010-01-01T01:56:55Z</time>
      </trkpt>
      <trkpt lat="43.82972" lon="3.11984">
        <ele>661</ele>
        <time>2010-01-01T01:58:31Z</time>
      </trkpt>
      <trkpt lat="43.83028" lon="3.12096">
        <ele>659</ele>
        <time>2010-01-01T02:01:38Z</time>
      </trkpt>
      <trkpt lat="43.83071" lon="3.12148">
        <ele>664</ele>
        <time>2010-01-01T02:03:27Z</time>
      </trkpt>
      <trkpt lat="43.83123" lon="3.12183">
        <ele>660</ele>
        <time>2010-01-01T02:05:17Z</time>
      </trkpt>
      <trkpt lat="43.83186" lon="3.12222">
        <ele>654</ele>
        <time>2010-01-01T02:07:28Z</time>
      </trkpt>
      <trkpt lat="43.83205" lon="3.12248">
        <ele>654</ele>
        <time>2010-01-01T02:08:18Z</time>
      </trkpt>
      <trkpt lat="43.83212" lon="3.12264">
        <ele>653</ele>
        <time>2010-01-01T02:08:45Z</time>
      </trkpt>
      <trkpt lat="43.83214" lon="3.12265">
        <ele>652</ele>
        <time>2010-01-01T02:08:49Z</time>
      </trkpt>
      <trkpt lat="43.83254" lon="3.12247">
        <ele>641</ele>
        <time>2010-01-01T02:10:09Z</time>
      </trkpt>
      <trkpt lat="43.83296" lon="3.12217">
        <ele>624</ele>
        <time>2010-01-01T02:11:39Z</time>
      </trkpt>
      <trkpt lat="43.83322" lon="3.12208">
        <ele>615</ele>
        <time>2010-01-01T02:12:30Z</time>
      </trkpt>
      <trkpt lat="43.83346" lon="3.12216">
        <ele>608</ele>
        <time>2010-01-01T02:13:17Z</time>
      </trkpt>
      <trkpt lat="43.83358" lon="3.12211">
        <ele>603</ele>
        <time>2010-01-01T02:13:41Z</time>
      </trkpt>
      <trkpt lat="43.83374" lon="3.12217">
        <ele>599</ele>
        <time>2010-01-01T02:14:12Z</time>
      </trkpt>
      <trkpt lat="43.83411" lon="3.12209">
        <ele>584</ele>
        <time>2010-01-01T02:15:23Z</time>
      </trkpt>
      <trkpt lat="43.83448" lon="3.12243">
        <ele>575</ele>
        <time>2010-01-01T02:16:49Z</time>
      </trkpt>
      <trkpt lat="43.8345" lon="3.12243">
        <ele>575</ele>
        <time>2010-01-01T02:16:52Z</time>
      </trkpt>
      <trkpt lat="43.83444" lon="3.12173">
        <ele>565</ele>
        <time>2010-01-01T02:18:29Z</time>
      </trkpt>
      <trkpt lat="43.83429" lon="3.12127">
        <ele>559</ele>
        <time>2010-01-01T02:19:39Z</time>
      </trkpt>
      <trkpt lat="43.834" lon="3.12091">
        <ele>557</ele>
        <time>2010-01-01T02:20:53Z</time>
      </trkpt>
      <trkpt lat="43.83362" lon="3.12051">
        <ele>561</ele>
        <time>2010-01-01T02:22:24Z</time>
      </trkpt>
      <trkpt lat="43.83362" lon="3.12051">
        <ele>561</ele>
        <time>2010-01-01T02:22:24Z</time>
      </trkpt>
      <trkpt lat="43.83388" lon="3.12066">
        <ele>557</ele>
        <time>2010-01-01T02:23:18Z</time>
      </trkpt>
      <trkpt lat="43.83415" lon="3.12077">
        <ele>551</ele>
        <time>2010-01-01T02:24:10Z</time>
      </trkpt>
      <trkpt lat="43.83451" lon="3.12097">
        <ele>548</ele>
        <time>2010-01-01T02:25:25Z</time>
      </trkpt>
      <trkpt lat="43.83477" lon="3.12116">
        <ele>546</ele>
        <time>2010-01-01T02:26:21Z</time>
      </trkpt>
      <trkpt lat="43.83501" lon="3.12144">
        <ele>541</ele>
        <time>2010-01-01T02:27:21Z</time>
      </trkpt>
      <trkpt lat="43.83517" lon="3.12172">
        <ele>541</ele>
        <time>2010-01-01T02:28:10Z</time>
      </trkpt>
      <trkpt lat="43.83534" lon="3.12201">
        <ele>539</ele>
        <time>2010-01-01T02:29:02Z</time>
      </trkpt>
      <trkpt lat="43.83564" lon="3.12241">
        <ele>531</ele>
        <time>2010-01-01T02:30:20Z</time>
      </trkpt>
    </trkseg>
  </trk>
</gpx>